Time;durP1;ratioP1;P1;durP2;ratioP2;P2;SDS_P1;SDS_P2;PMS_P1;PMS_P2;Temp;Humidity;BMP_temperature;BMP_pressure;BME280_temperature;BME280_humidity;BME280_pressure;Samples;Min_cycle;Max_cycle;Signal;HPM_P1;HPM_P2
2023/06/18 00:01:05;;;;;;;13.02;9.77;;;;;;;14.38;79.31;93801.13;5050901;28;20064;-56
2023/06/18 00:03:32;;;;;;;12.93;10.07;;;;;;;14.36;79.48;93804.31;5051185;28;20373;-56
2023/06/18 00:06:00;;;;;;;13.05;10.10;;;;;;;14.34;80.08;93806.00;5049182;28;20071;-58
2023/06/18 00:08:26;;;;;;;12.35;9.43;;;;;;;14.31;80.31;93801.38;5031084;28;20048;-58
2023/06/18 00:10:53;;;;;;;13.45;10.38;;;;;;;14.29;80.85;93795.50;5041738;28;20587;-57
2023/06/18 00:13:20;;;;;;;13.65;10.20;;;;;;;14.26;80.88;93799.16;5037269;28;20329;-60
2023/06/18 00:15:47;;;;;;;13.40;10.07;;;;;;;14.18;81.61;93793.06;5049556;28;20055;-54
2023/06/18 00:18:13;;;;;;;13.18;10.20;;;;;;;14.08;82.42;93794.19;5034308;28;20049;-57
2023/06/18 00:20:40;;;;;;;13.38;10.13;;;;;;;14.15;81.84;93796.72;5040046;28;20048;-58
2023/06/18 00:23:07;;;;;;;14.60;10.27;;;;;;;14.11;82.13;93796.84;5049537;28;20509;-57
2023/06/18 00:25:34;;;;;;;15.40;11.90;;;;;;;14.11;82.24;93796.84;5050535;28;20047;-62
2023/06/18 00:28:01;;;;;;;18.10;12.73;;;;;;;14.11;82.06;93790.56;5048973;28;20403;-57
2023/06/18 00:30:27;;;;;;;15.18;10.80;;;;;;;14.09;82.18;93784.69;5040009;28;20039;-54
2023/06/18 00:32:54;;;;;;;15.10;10.15;;;;;;;14.09;82.02;93792.97;5043641;28;20042;-57
2023/06/18 00:35:21;;;;;;;13.52;10.15;;;;;;;14.08;82.50;93791.41;5049221;28;20369;-57
2023/06/18 00:37:48;;;;;;;14.50;9.77;;;;;;;14.05;82.33;93790.31;5048884;28;20037;-63
2023/06/18 00:40:15;;;;;;;13.77;10.00;;;;;;;13.93;83.61;93783.56;5049584;28;20052;-57
2023/06/18 00:42:42;;;;;;;14.20;10.43;;;;;;;13.91;84.45;93790.75;5050014;28;20114;-61
2023/06/18 00:45:09;;;;;;;14.05;10.13;;;;;;;13.84;84.49;93785.44;5049397;28;20051;-55
2023/06/18 00:47:37;;;;;;;14.45;10.45;;;;;;;13.78;85.15;93780.47;5049978;28;20486;-54
2023/06/18 00:50:05;;;;;;;14.50;10.63;;;;;;;13.75;85.08;93775.06;5049120;28;20051;-57
2023/06/18 00:52:44;;;;;;;13.97;10.63;;;;;;;13.74;85.63;93779.03;5049875;28;20045;-57
2023/06/18 00:55:16;;;;;;;15.05;11.40;;;;;;;13.66;87.12;93772.97;5049092;28;20052;-56
2023/06/18 00:57:49;;;;;;;16.00;11.20;;;;;;;13.63;87.25;93773.06;5023886;28;20056;-57
2023/06/18 01:00:19;;;;;;;14.38;10.98;;;;;;;13.51;88.02;93771.84;5049325;28;20045;-57
2023/06/18 01:02:49;;;;;;;16.35;11.05;;;;;;;13.50;88.18;93776.56;5048582;28;20048;-56
2023/06/18 01:05:19;;;;;;;28.87;20.47;;;;;;;13.50;88.24;93773.81;5049282;28;20045;-64
2023/06/18 01:07:49;;;;;;;20.65;14.57;;;;;;;13.39;88.98;93776.09;5034090;28;20067;-61
2023/06/18 01:10:17;;;;;;;15.68;11.73;;;;;;;13.26;90.34;93772.50;5042347;28;20041;-59
2023/06/18 01:12:48;;;;;;;15.80;11.00;;;;;;;13.19;91.24;93779.00;5049488;28;20039;-62
2023/06/18 01:15:17;;;;;;;16.90;11.30;;;;;;;13.18;91.11;93777.44;5048723;28;20056;-59
2023/06/18 01:17:48;;;;;;;14.30;10.53;;;;;;;13.24;90.96;93774.91;5037603;28;20249;-59
2023/06/18 01:20:18;;;;;;;16.27;11.43;;;;;;;13.21;90.89;93773.03;5048291;28;20048;-58
2023/06/18 01:22:52;;;;;;;16.33;10.90;;;;;;;13.22;90.32;93777.34;5049357;28;20041;-56
2023/06/18 01:25:19;;;;;;;15.00;10.63;;;;;;;13.19;90.31;93785.25;5024448;28;20041;-60
2023/06/18 01:27:47;;;;;;;14.02;10.38;;;;;;;13.20;90.88;93780.53;5048051;28;20099;-58
2023/06/18 01:30:14;;;;;;;13.33;10.70;;;;;;;13.15;91.32;93781.84;5048430;28;20499;-58
2023/06/18 01:32:41;;;;;;;16.25;10.70;;;;;;;13.18;90.78;93782.97;5049498;28;20073;-58
2023/06/18 01:35:15;;;;;;;14.55;10.80;;;;;;;13.17;91.13;93792.44;5048615;28;20045;-61
2023/06/18 01:37:58;;;;;;;15.30;10.55;;;;;;;13.16;90.80;93785.38;5049106;28;20049;-57
2023/06/18 01:40:41;;;;;;;14.63;11.13;;;;;;;13.10;91.04;93781.59;5048236;28;20703;-61
2023/06/18 01:43:12;;;;;;;13.50;10.40;;;;;;;13.09;91.05;93778.06;5048031;28;20045;-56
2023/06/18 01:46:10;;;;;;;14.20;10.32;;;;;;;12.99;91.63;93782.66;5048971;28;20401;-60
2023/06/18 01:48:44;;;;;;;13.02;9.93;;;;;;;12.98;91.94;93770.09;5036554;28;21516;-56
2023/06/18 01:51:12;;;;;;;14.73;10.45;;;;;;;13.00;92.02;93775.19;5021309;28;20078;-56
2023/06/18 01:53:40;;;;;;;15.45;10.13;;;;;;;12.90;92.12;93774.25;5020656;28;20478;-56
2023/06/18 01:56:09;;;;;;;15.77;9.97;;;;;;;12.76;93.77;93772.63;5047784;28;20055;-58
2023/06/18 01:58:41;;;;;;;15.00;9.85;;;;;;;12.65;94.68;93779.63;5063769;28;20043;-58
2023/06/18 02:01:09;;;;;;;14.02;10.02;;;;;;;12.64;95.32;93787.13;5048118;28;20413;-58
2023/06/18 02:03:36;;;;;;;13.57;10.25;;;;;;;12.69;94.73;93783.06;5048860;28;20045;-58
2023/06/18 02:06:04;;;;;;;15.65;10.77;;;;;;;12.60;96.47;93775.44;5047992;28;20075;-56
2023/06/18 02:08:31;;;;;;;15.60;10.83;;;;;;;12.50;97.85;93779.22;5048475;28;20043;-58
2023/06/18 02:10:58;;;;;;;15.23;11.50;;;;;;;12.46;98.37;93781.28;5047562;28;20433;-57
2023/06/18 02:13:25;;;;;;;14.73;11.23;;;;;;;12.48;98.30;93781.63;5048159;28;20391;-62
2023/06/18 02:15:52;;;;;;;14.60;10.93;;;;;;;12.43;98.48;93780.16;5048081;28;20064;-66
2023/06/18 02:18:19;;;;;;;14.15;11.13;;;;;;;12.42;98.98;93778.63;5047975;28;20040;-63
2023/06/18 02:20:46;;;;;;;15.23;11.07;;;;;;;12.23;100.00;93774.72;5048316;28;20421;-57
2023/06/18 02:23:13;;;;;;;15.05;10.82;;;;;;;12.37;100.00;93774.41;5047222;28;20053;-55
2023/06/18 02:25:40;;;;;;;16.20;11.30;;;;;;;12.31;100.00;93773.34;5048183;28;20055;-57
2023/06/18 02:28:06;;;;;;;14.70;10.65;;;;;;;12.36;100.00;93788.59;5046751;28;20152;-57
2023/06/18 02:30:33;;;;;;;14.48;10.90;;;;;;;12.28;100.00;93779.72;5046715;28;20516;-58
2023/06/18 02:33:02;;;;;;;15.57;11.30;;;;;;;12.25;100.00;93777.06;5033980;28;20045;-57
2023/06/18 02:35:29;;;;;;;15.50;11.23;;;;;;;12.16;100.00;93780.41;5047930;28;20055;-58
2023/06/18 02:37:56;;;;;;;14.38;11.13;;;;;;;12.17;100.00;93785.50;5044813;28;20494;-54
2023/06/18 02:40:23;;;;;;;15.43;11.60;;;;;;;12.18;100.00;93780.75;5035233;28;20112;-54
2023/06/18 02:42:52;;;;;;;15.75;11.40;;;;;;;12.17;100.00;93784.72;5047817;28;20041;-56
2023/06/18 02:45:20;;;;;;;13.43;10.33;;;;;;;12.15;100.00;93776.91;5046007;28;20044;-56
2023/06/18 02:47:49;;;;;;;15.95;10.18;;;;;;;12.15;100.00;93767.84;5047407;28;20033;-56
2023/06/18 02:50:16;;;;;;;14.55;10.10;;;;;;;12.15;100.00;93771.41;5046105;28;20048;-54
2023/06/18 02:52:44;;;;;;;15.68;11.43;;;;;;;12.19;100.00;93766.59;5046387;28;20458;-56
2023/06/18 02:55:11;;;;;;;15.20;10.77;;;;;;;12.17;100.00;93774.50;5015078;28;20045;-56
2023/06/18 02:57:39;;;;;;;14.20;10.23;;;;;;;12.18;100.00;93772.50;5026380;28;20414;-61
2023/06/18 03:00:09;;;;;;;16.30;10.93;;;;;;;12.11;100.00;93778.16;5044475;28;20049;-57
2023/06/18 03:02:36;;;;;;;17.83;11.40;;;;;;;12.09;100.00;93777.81;5047829;28;20469;-57
2023/06/18 03:05:03;;;;;;;14.23;10.73;;;;;;;12.02;100.00;93776.03;5047327;28;20049;-57
2023/06/18 03:07:31;;;;;;;15.82;11.27;;;;;;;11.97;100.00;93777.31;5047860;28;20440;-59
2023/06/18 03:09:58;;;;;;;16.40;11.37;;;;;;;11.97;100.00;93780.06;5033669;28;20068;-59
2023/06/18 03:12:24;;;;;;;16.35;11.15;;;;;;;11.94;100.00;93775.41;5047987;28;20047;-56
2023/06/18 03:14:51;;;;;;;15.55;11.63;;;;;;;11.93;100.00;93779.38;5036734;28;20063;-56
2023/06/18 03:17:18;;;;;;;15.55;10.27;;;;;;;11.86;100.00;93782.25;5043334;28;20354;-59
2023/06/18 03:19:44;;;;;;;15.00;10.63;;;;;;;11.86;100.00;93787.75;5046769;28;20049;-57
2023/06/18 03:22:11;;;;;;;14.10;9.77;;;;;;;11.92;100.00;93779.78;5033822;28;20055;-57
2023/06/18 03:24:38;;;;;;;14.77;10.57;;;;;;;11.97;100.00;93785.56;5047665;28;20369;-60
2023/06/18 03:27:06;;;;;;;17.23;10.90;;;;;;;12.05;100.00;93774.38;5046384;28;20059;-55
2023/06/18 03:29:35;;;;;;;14.13;10.35;;;;;;;12.04;100.00;93773.63;5042891;28;20038;-56
2023/06/18 03:32:03;;;;;;;19.63;11.00;;;;;;;11.90;100.00;93773.94;5041346;28;20059;-56
2023/06/18 03:34:31;;;;;;;15.87;11.43;;;;;;;11.82;100.00;93773.28;5034047;28;20049;-57
2023/06/18 03:37:00;;;;;;;14.73;10.70;;;;;;;11.77;100.00;93776.53;5046997;28;20094;-57
2023/06/18 03:39:27;;;;;;;15.73;11.25;;;;;;;11.78;100.00;93778.09;5047607;28;20047;-57
2023/06/18 03:41:55;;;;;;;15.00;11.02;;;;;;;11.82;100.00;93781.53;5047380;28;20381;-57
2023/06/18 03:44:22;;;;;;;16.95;10.77;;;;;;;11.89;100.00;93775.94;5046279;28;21705;-57
2023/06/18 03:46:49;;;;;;;15.23;10.27;;;;;;;12.01;100.00;93785.47;5036837;28;20041;-57
2023/06/18 03:49:16;;;;;;;14.55;10.68;;;;;;;12.11;100.00;93772.66;5043992;28;20053;-57
2023/06/18 03:51:43;;;;;;;16.17;10.65;;;;;;;12.11;100.00;93775.41;5049077;28;20063;-63
2023/06/18 03:54:10;;;;;;;13.02;9.68;;;;;;;12.24;100.00;93767.28;5048254;28;20056;-66
2023/06/18 03:56:37;;;;;;;14.73;10.43;;;;;;;12.23;100.00;93762.97;5031472;28;20049;-56
2023/06/18 03:59:04;;;;;;;16.23;11.30;;;;;;;12.23;100.00;93760.22;5035948;28;20129;-59
2023/06/18 04:01:31;;;;;;;15.32;10.77;;;;;;;12.18;100.00;93767.00;5051488;28;20041;-60
2023/06/18 04:03:57;;;;;;;14.32;10.75;;;;;;;12.20;100.00;93772.84;5050497;28;20045;-59
2023/06/18 04:06:24;;;;;;;15.52;10.63;;;;;;;12.22;100.00;93773.19;5051498;28;20482;-56
2023/06/18 04:08:51;;;;;;;16.00;10.98;;;;;;;12.17;100.00;93770.94;5050975;28;20033;-55
2023/06/18 04:11:18;;;;;;;15.00;11.00;;;;;;;12.12;100.00;93771.47;5050767;28;20045;-57
2023/06/18 04:13:44;;;;;;;14.32;10.77;;;;;;;12.22;100.00;93777.94;5050823;28;20041;-57
2023/06/18 04:16:11;;;;;;;14.68;11.20;;;;;;;12.28;100.00;93771.47;5049269;28;20051;-63
2023/06/18 04:18:38;;;;;;;15.40;10.93;;;;;;;12.26;100.00;93776.63;5050892;28;20037;-61
2023/06/18 04:21:04;;;;;;;14.75;11.27;;;;;;;12.32;100.00;93777.66;5050035;28;20405;-56
2023/06/18 04:23:31;;;;;;;15.97;11.30;;;;;;;12.44;100.00;93781.72;5050771;28;20060;-56
2023/06/18 04:25:58;;;;;;;14.77;11.45;;;;;;;12.47;100.00;93780.06;5049887;28;20059;-63
2023/06/18 04:28:25;;;;;;;15.80;11.70;;;;;;;12.96;97.60;93775.28;5037848;28;20049;-58
2023/06/18 04:30:51;;;;;;;14.65;10.93;;;;;;;13.62;94.25;93766.00;5035168;28;20509;-57
2023/06/18 04:33:18;;;;;;;15.85;11.10;;;;;;;13.93;91.74;93756.00;5042568;28;20045;-58
2023/06/18 04:35:45;;;;;;;13.83;10.73;;;;;;;14.29;89.83;93767.91;5044330;28;20059;-58
2023/06/18 04:38:12;;;;;;;15.20;11.45;;;;;;;14.08;89.15;93763.81;5049989;28;20061;-57
2023/06/18 04:40:39;;;;;;;14.15;11.30;;;;;;;13.69;90.95;93763.81;5050454;28;20044;-62
2023/06/18 04:43:05;;;;;;;14.02;11.40;;;;;;;14.09;89.68;93762.63;5050203;28;20086;-57
2023/06/18 04:45:32;;;;;;;14.35;11.23;;;;;;;14.34;87.72;93762.59;5050879;28;20037;-57
2023/06/18 04:47:59;;;;;;;15.63;11.47;;;;;;;14.42;87.29;93765.88;5036639;28;20048;-58
2023/06/18 04:50:26;;;;;;;14.75;10.88;;;;;;;14.55;86.39;93761.13;5048811;28;20422;-57
2023/06/18 04:52:52;;;;;;;14.15;11.43;;;;;;;14.63;85.44;93756.19;5048981;28;20114;-57
2023/06/18 04:55:19;;;;;;;13.02;10.63;;;;;;;14.63;85.44;93758.94;5044321;28;20403;-60
2023/06/18 04:57:46;;;;;;;14.60;11.60;;;;;;;14.63;85.23;93755.38;5034281;28;20043;-58
2023/06/18 05:00:13;;;;;;;14.07;11.03;;;;;;;14.72;84.98;93750.72;5047906;28;20049;-55
2023/06/18 05:02:40;;;;;;;14.65;11.45;;;;;;;14.44;86.18;93757.16;5049429;28;20075;-57
2023/06/18 05:05:08;;;;;;;15.35;12.30;;;;;;;14.45;86.18;93756.72;5048944;28;20122;-57
2023/06/18 05:07:35;;;;;;;15.65;11.85;;;;;;;14.45;86.86;93751.22;5049478;28;20462;-58
2023/06/18 05:10:01;;;;;;;15.88;12.20;;;;;;;14.17;89.07;93750.91;5048875;28;20051;-57
2023/06/18 05:12:28;;;;;;;16.03;12.47;;;;;;;14.37;88.91;93752.66;5064604;28;20485;-63
2023/06/18 05:14:55;;;;;;;15.35;11.73;;;;;;;14.86;86.86;93749.47;5048153;28;20115;-59
2023/06/18 05:17:22;;;;;;;18.85;13.38;;;;;;;16.45;79.91;93749.94;5048303;28;20033;-57
2023/06/18 05:19:48;;;;;;;16.42;12.23;;;;;;;18.44;69.75;93738.78;5049083;28;20044;-58
2023/06/18 05:22:15;;;;;;;17.35;12.80;;;;;;;19.81;63.52;93743.06;5048062;28;20067;-61
2023/06/18 05:24:42;;;;;;;14.73;11.73;;;;;;;20.65;58.31;93738.81;5049408;28;20040;-58
2023/06/18 05:27:09;;;;;;;14.10;11.60;;;;;;;21.74;53.92;93742.41;5047994;28;20044;-64
2023/06/18 05:29:36;;;;;;;13.15;10.82;;;;;;;21.88;52.50;93746.34;5044317;28;20382;-57
2023/06/18 05:32:03;;;;;;;12.20;10.90;;;;;;;21.30;52.77;93738.59;5043930;28;20043;-57
2023/06/18 05:34:30;;;;;;;12.82;11.10;;;;;;;21.03;53.68;93739.81;5048656;28;20524;-59
2023/06/18 05:36:56;;;;;;;11.83;10.50;;;;;;;22.64;49.25;93731.22;5047350;28;20037;-62
2023/06/18 05:39:23;;;;;;;11.60;10.23;;;;;;;21.93;49.75;93754.00;5048725;28;20319;-60
2023/06/18 05:41:50;;;;;;;13.13;11.43;;;;;;;22.69;48.53;93741.66;5049179;28;20075;-59
2023/06/18 05:44:17;;;;;;;13.98;11.95;;;;;;;24.15;44.43;93746.28;5048074;28;20500;-57
2023/06/18 05:46:44;;;;;;;14.10;10.70;;;;;;;24.96;42.23;93738.84;5049050;28;20465;-57
2023/06/18 05:49:11;;;;;;;11.30;10.10;;;;;;;24.21;42.51;93747.06;5046614;28;20414;-58
2023/06/18 05:51:38;;;;;;;11.02;9.75;;;;;;;24.47;41.83;93746.81;5048651;28;20048;-58
2023/06/18 05:54:05;;;;;;;10.70;9.50;;;;;;;25.66;39.92;93747.28;5047910;28;20049;-61
2023/06/18 05:56:32;;;;;;;12.63;9.90;;;;;;;25.63;39.09;93757.50;5048530;28;20047;-64
2023/06/18 05:58:59;;;;;;;10.85;9.57;;;;;;;26.13;37.93;93746.50;5048406;28;20045;-56
2023/06/18 06:01:25;;;;;;;12.27;10.40;;;;;;;25.98;37.27;93747.63;5037781;28;20047;-58
2023/06/18 06:03:52;;;;;;;10.15;9.02;;;;;;;25.94;37.73;93749.97;5046394;28;20071;-63
2023/06/18 06:06:19;;;;;;;10.88;9.55;;;;;;;27.40;35.64;93738.69;5047290;28;20341;-61
2023/06/18 06:08:46;;;;;;;12.30;9.15;;;;;;;26.50;35.62;93745.94;5048731;28;20174;-63
2023/06/18 06:11:13;;;;;;;10.57;9.02;;;;;;;27.73;33.58;93734.69;5047646;28;20409;-61
2023/06/18 06:13:40;;;;;;;10.60;9.30;;;;;;;27.98;33.67;93741.03;5048130;28;20041;-57
2023/06/18 06:16:07;;;;;;;9.93;8.90;;;;;;;28.37;32.33;93742.53;5047607;28;20055;-63
2023/06/18 06:18:33;;;;;;;10.25;8.95;;;;;;;27.30;33.72;93741.13;5035020;28;20048;-59
2023/06/18 06:21:00;;;;;;;10.52;9.15;;;;;;;28.27;32.50;93744.19;5046536;28;20045;-61
2023/06/18 06:23:27;;;;;;;9.55;8.55;;;;;;;28.00;32.75;93746.91;5047820;28;20802;-60
2023/06/18 06:25:54;;;;;;;10.03;8.60;;;;;;;28.68;32.41;93737.41;5030113;28;20094;-58
2023/06/18 06:28:20;;;;;;;11.57;9.10;;;;;;;28.12;32.23;93732.66;5062534;28;20140;-57
2023/06/18 06:30:47;;;;;;;10.60;8.88;;;;;;;28.06;33.29;93736.28;5034901;28;20705;-60
2023/06/18 06:33:14;;;;;;;10.02;9.02;;;;;;;28.21;32.40;93740.69;5044740;28;20067;-58
2023/06/18 06:35:41;;;;;;;11.07;9.05;;;;;;;29.18;31.18;93735.75;5048305;28;20029;-61
2023/06/18 06:38:08;;;;;;;10.00;8.53;;;;;;;30.24;29.36;93732.00;5034112;28;20067;-67
2023/06/18 06:40:34;;;;;;;10.70;8.20;;;;;;;30.07;28.81;93740.13;5063370;28;20049;-57
2023/06/18 06:43:01;;;;;;;9.35;8.35;;;;;;;29.93;29.18;93727.31;5045857;28;20045;-58
2023/06/18 06:45:28;;;;;;;10.68;8.70;;;;;;;31.95;27.17;93731.94;5036508;28;20160;-61
2023/06/18 06:47:55;;;;;;;10.43;8.30;;;;;;;32.12;26.64;93734.31;5047958;28;20421;-58
2023/06/18 06:50:22;;;;;;;8.80;7.90;;;;;;;33.38;25.33;93734.06;5037242;28;20565;-62
2023/06/18 06:52:49;;;;;;;8.40;7.55;;;;;;;34.18;24.38;93734.78;5028783;28;20064;-62
2023/06/18 06:55:15;;;;;;;8.73;7.82;;;;;;;35.37;22.20;93733.56;5047622;28;20044;-57
2023/06/18 06:57:42;;;;;;;8.50;7.60;;;;;;;35.13;22.67;93730.13;5048081;28;20063;-60
2023/06/18 07:00:10;;;;;;;8.55;7.63;;;;;;;33.86;23.95;93724.81;5048033;28;20494;-62
2023/06/18 07:02:37;;;;;;;9.67;8.10;;;;;;;32.29;25.53;93734.53;5048568;28;20047;-59
2023/06/18 07:05:06;;;;;;;9.05;8.15;;;;;;;33.63;24.29;93731.34;5047831;28;20064;-63
2023/06/18 07:07:33;;;;;;;9.15;7.95;;;;;;;33.98;23.93;93728.00;5048339;28;20409;-58
2023/06/18 07:10:00;;;;;;;9.45;8.10;;;;;;;33.28;24.10;93733.09;5047625;28;20815;-62
2023/06/18 07:12:27;;;;;;;9.50;8.50;;;;;;;31.08;26.58;93734.09;5035220;28;20046;-58
2023/06/18 07:14:54;;;;;;;9.87;8.53;;;;;;;30.92;27.53;93738.88;5033277;28;20045;-58
2023/06/18 07:17:21;;;;;;;9.18;8.27;;;;;;;31.35;27.04;93739.56;5047484;28;20125;-59
2023/06/18 07:19:47;;;;;;;10.15;8.60;;;;;;;34.00;24.16;93742.41;5044384;28;20355;-58
2023/06/18 07:22:14;;;;;;;9.27;8.18;;;;;;;33.62;24.26;93741.25;5038306;28;20063;-63
2023/06/18 07:24:41;;;;;;;8.65;7.80;;;;;;;33.79;24.39;93743.44;5048171;28;20459;-60
2023/06/18 07:27:08;;;;;;;9.87;7.80;;;;;;;33.98;23.22;93745.09;5049667;28;20052;-58
2023/06/18 07:29:35;;;;;;;9.27;7.50;;;;;;;33.38;23.47;93742.59;5048698;28;20041;-58
2023/06/18 07:32:01;;;;;;;15.98;8.10;;;;;;;32.35;23.89;93752.16;5048094;28;20417;-58
2023/06/18 07:34:28;;;;;;;8.48;7.57;;;;;;;31.65;24.87;93751.13;5051570;28;20512;-59
2023/06/18 07:36:56;;;;;;;9.75;8.50;;;;;;;31.49;24.85;93755.16;5047528;28;20041;-61
2023/06/18 07:39:23;;;;;;;9.40;8.10;;;;;;;33.10;23.32;93739.94;5041389;28;20552;-59
2023/06/18 07:41:49;;;;;;;8.90;8.00;;;;;;;32.69;23.78;93738.97;5051309;28;20449;-58
2023/06/18 07:44:16;;;;;;;11.10;8.63;;;;;;;33.25;23.14;93739.19;5051333;28;20417;-58
2023/06/18 07:46:43;;;;;;;9.07;8.07;;;;;;;32.12;23.57;93743.56;5050003;28;20066;-59
2023/06/18 07:49:10;;;;;;;10.73;8.23;;;;;;;32.25;23.52;93737.72;5063573;28;20045;-61
2023/06/18 07:51:37;;;;;;;10.57;8.13;;;;;;;32.19;23.33;93734.31;5033546;28;20044;-58
2023/06/18 07:54:04;;;;;;;10.50;8.38;;;;;;;32.00;23.86;93739.56;5042257;28;20117;-59
2023/06/18 07:56:31;;;;;;;11.70;8.13;;;;;;;31.94;22.93;93734.03;5049903;28;20041;-58
2023/06/18 07:58:58;;;;;;;9.30;8.30;;;;;;;30.90;23.46;93737.94;5066275;28;20049;-58
2023/06/18 08:01:25;;;;;;;10.20;8.40;;;;;;;30.61;24.75;93735.03;5038022;28;20130;-61
2023/06/18 08:03:51;;;;;;;9.33;8.43;;;;;;;31.83;23.75;93731.50;5051440;28;20043;-62
2023/06/18 08:06:18;;;;;;;9.10;7.47;;;;;;;32.41;22.84;93718.66;5050624;28;20040;-59
2023/06/18 08:08:48;;;;;;;9.63;7.78;;;;;;;32.64;22.26;93726.47;5050949;28;20076;-63
2023/06/18 08:11:15;;;;;;;9.50;7.88;;;;;;;32.85;21.25;93720.59;5050249;28;20053;-62
2023/06/18 08:13:42;;;;;;;11.25;7.30;;;;;;;32.99;21.28;93721.94;5051349;28;20437;-58
2023/06/18 08:16:08;;;;;;;7.97;7.17;;;;;;;32.11;22.52;93716.50;5049893;28;20075;-58
2023/06/18 08:18:36;;;;;;;9.63;7.30;;;;;;;31.78;22.67;93716.19;5050717;28;20145;-60
2023/06/18 08:21:03;;;;;;;8.80;7.70;;;;;;;32.61;20.97;93721.94;5050158;28;20060;-60
2023/06/18 08:23:30;;;;;;;9.30;7.75;;;;;;;32.07;22.09;93712.53;5050635;28;20055;-63
2023/06/18 08:25:57;;;;;;;8.95;7.88;;;;;;;32.47;21.41;93712.03;5065390;28;20520;-59
2023/06/18 08:28:23;;;;;;;9.07;7.40;;;;;;;32.61;21.09;93713.41;5050829;28;20477;-58
2023/06/18 08:30:50;;;;;;;8.18;7.38;;;;;;;33.82;20.89;93713.81;5037369;28;20033;-60
2023/06/18 08:33:17;;;;;;;8.77;7.25;;;;;;;34.29;20.50;93705.84;5045322;28;20072;-60
2023/06/18 08:35:44;;;;;;;8.50;7.18;;;;;;;35.05;19.02;93711.59;5050557;28;20048;-58
2023/06/18 08:38:10;;;;;;;7.88;7.15;;;;;;;32.98;20.55;93714.75;5049610;28;20051;-65
2023/06/18 08:40:49;;;;;;;9.10;7.30;;;;;;;33.13;21.25;93713.22;5065597;28;20409;-62
2023/06/18 08:43:21;;;;;;;8.45;7.40;;;;;;;32.84;21.45;93708.50;5049577;28;20048;-62
2023/06/18 08:45:51;;;;;;;8.05;7.25;;;;;;;32.94;21.04;93711.53;5039148;28;20063;-58
2023/06/18 08:48:27;;;;;;;7.90;7.07;;;;;;;33.99;20.39;93706.75;5049545;28;20048;-58
2023/06/18 08:51:05;;;;;;;7.63;6.60;;;;;;;33.63;20.54;93710.69;5033527;28;20061;-56
2023/06/18 08:53:52;;;;;;;8.83;7.07;;;;;;;34.80;19.36;93707.41;5024459;28;20101;-61
2023/06/18 08:56:22;;;;;;;7.70;6.95;;;;;;;35.23;18.68;93704.59;5049639;28;20072;-61
2023/06/18 08:58:50;;;;;;;7.55;6.75;;;;;;;34.05;19.71;93704.44;5050136;28;20053;-60
2023/06/18 09:01:18;;;;;;;7.65;6.70;;;;;;;35.38;18.44;93695.88;5049721;28;20049;-59
2023/06/18 09:03:46;;;;;;;7.50;6.75;;;;;;;35.12;19.00;93699.38;5048838;28;20422;-59
2023/06/18 09:06:13;;;;;;;8.60;7.17;;;;;;;35.33;18.13;93696.13;5048966;28;20397;-61
2023/06/18 09:08:40;;;;;;;8.02;6.75;;;;;;;35.53;18.55;93694.97;5050110;28;20051;-60
2023/06/18 09:11:07;;;;;;;7.60;6.60;;;;;;;36.35;17.75;93698.75;5048000;28;20078;-61
2023/06/18 09:13:41;;;;;;;7.50;6.70;;;;;;;34.64;18.90;93688.91;5041196;28;20041;-65
2023/06/18 09:16:11;;;;;;;7.43;6.60;;;;;;;36.29;17.76;93689.69;5040159;28;20053;-59
2023/06/18 09:18:38;;;;;;;8.90;6.57;;;;;;;34.32;19.32;93689.69;5026742;28;20270;-58
2023/06/18 09:21:05;;;;;;;7.28;6.50;;;;;;;36.73;17.48;93688.13;5042907;28;20372;-59
2023/06/18 09:23:33;;;;;;;7.70;6.90;;;;;;;35.60;18.29;93679.13;5037905;28;20044;-60
2023/06/18 09:26:00;;;;;;;7.57;6.70;;;;;;;35.81;17.38;93684.41;5049006;28;20053;-61
2023/06/18 09:28:27;;;;;;;8.13;6.40;;;;;;;37.91;16.05;93675.53;5049539;28;20045;-60
2023/06/18 09:31:00;;;;;;;7.83;6.10;;;;;;;39.85;15.35;93670.34;5050774;28;20037;-64
2023/06/18 09:33:34;;;;;;;6.95;6.25;;;;;;;35.86;17.44;93674.84;5046337;28;20648;-59
2023/06/18 09:36:04;;;;;;;8.60;6.65;;;;;;;35.75;17.74;93676.09;5048995;28;20067;-63
2023/06/18 09:38:37;;;;;;;6.55;5.95;;;;;;;39.38;15.59;93670.06;5036299;28;20044;-60
2023/06/18 09:41:13;;;;;;;7.07;6.32;;;;;;;37.10;16.76;93673.78;5049211;28;20466;-58
2023/06/18 09:43:43;;;;;;;7.97;6.60;;;;;;;38.51;15.57;93672.75;5035954;28;20048;-59
2023/06/18 09:46:12;;;;;;;7.15;6.38;;;;;;;37.77;16.35;93669.50;5047424;28;20067;-59
2023/06/18 09:48:45;;;;;;;7.28;6.57;;;;;;;37.49;16.55;93677.50;5048215;28;20414;-58
2023/06/18 09:51:16;;;;;;;9.35;7.07;;;;;;;33.67;19.05;93674.06;5044867;28;20041;-59
2023/06/18 09:53:43;;;;;;;8.07;6.63;;;;;;;35.23;19.02;93669.63;5023842;28;20159;-60
2023/06/18 09:56:15;;;;;;;11.17;7.13;;;;;;;33.12;20.71;93681.22;5038801;28;20049;-61
2023/06/18 09:58:47;;;;;;;9.45;6.82;;;;;;;34.06;19.38;93673.88;5048462;28;20037;-58
2023/06/18 10:01:15;;;;;;;8.30;7.40;;;;;;;34.90;18.91;93667.63;5048061;28;20041;-61
2023/06/18 10:03:44;;;;;;;8.20;7.38;;;;;;;33.48;20.17;93668.75;5047595;28;20053;-64
2023/06/18 10:06:24;;;;;;;7.90;7.10;;;;;;;33.61;20.30;93662.88;5048025;28;20420;-59
2023/06/18 10:08:55;;;;;;;7.83;7.03;;;;;;;33.67;19.91;93665.50;5048377;28;20405;-59
2023/06/18 10:11:22;;;;;;;8.30;7.40;;;;;;;31.94;21.58;93668.00;5045647;28;20036;-58
2023/06/18 10:13:53;;;;;;;8.38;7.18;;;;;;;34.00;19.59;93659.84;5048417;28;20502;-63
2023/06/18 10:16:20;;;;;;;8.52;6.90;;;;;;;34.03;20.09;93658.69;5047916;28;20055;-58
2023/06/18 10:19:18;;;;;;;7.93;7.13;;;;;;;33.95;19.42;93663.69;5048176;28;20045;-58
2023/06/18 10:21:58;;;;;;;7.70;6.90;;;;;;;34.06;19.53;93653.94;5047352;28;20719;-59
2023/06/18 10:24:34;;;;;;;7.97;7.00;;;;;;;32.71;20.67;93651.09;5039266;28;20675;-58
2023/06/18 10:27:02;;;;;;;8.05;7.22;;;;;;;32.33;21.04;93651.81;5041805;28;20041;-60
2023/06/18 10:29:31;;;;;;;8.57;7.45;;;;;;;32.31;20.89;93652.38;5045123;28;20041;-58
2023/06/18 10:32:01;;;;;;;8.60;7.70;;;;;;;31.81;21.38;93652.63;5039284;28;20033;-58
2023/06/18 10:34:29;;;;;;;8.40;7.00;;;;;;;32.02;21.06;93648.94;5047716;28;20051;-61
2023/06/18 10:36:57;;;;;;;8.07;7.20;;;;;;;32.79;21.17;93655.44;5046734;28;20044;-58
2023/06/18 10:39:25;;;;;;;8.25;7.45;;;;;;;31.77;21.90;93648.63;5046906;28;20041;-60
2023/06/18 10:41:53;;;;;;;8.00;7.20;;;;;;;30.86;23.24;93654.00;5048484;28;20043;-57
2023/06/18 10:44:33;;;;;;;8.68;7.78;;;;;;;31.40;22.96;93642.25;5044351;28;20116;-57
2023/06/18 10:47:28;;;;;;;8.67;7.53;;;;;;;31.82;22.07;93639.22;5039471;28;20044;-59
2023/06/18 10:50:07;;;;;;;9.35;7.93;;;;;;;30.48;23.46;93642.41;5037505;28;20049;-62
2023/06/18 10:52:49;;;;;;;8.90;8.00;;;;;;;30.71;23.62;93641.81;5029739;28;21508;-62
2023/06/18 10:55:22;;;;;;;9.05;7.70;;;;;;;31.20;22.98;93650.25;5029571;28;20048;-60
2023/06/18 10:58:10;;;;;;;9.13;7.18;;;;;;;31.35;22.50;93637.47;5048203;28;20485;-62
2023/06/18 11:00:40;;;;;;;8.83;7.23;;;;;;;32.28;21.45;93635.69;5049123;28;20102;-65
2023/06/18 11:03:16;;;;;;;8.75;7.10;;;;;;;31.46;22.09;93634.34;5051801;28;20494;-63
2023/06/18 11:05:48;;;;;;;8.40;7.50;;;;;;;31.23;22.71;93634.22;5027537;28;20033;-59
2023/06/18 11:08:25;;;;;;;8.02;7.13;;;;;;;31.15;22.27;93630.56;5051432;28;20076;-63
2023/06/18 11:11:02;;;;;;;8.48;7.03;;;;;;;30.95;22.58;93635.00;5052452;28;20040;-58
2023/06/18 11:13:33;;;;;;;8.10;7.30;;;;;;;31.71;21.88;93619.69;5051651;28;20408;-59
2023/06/18 11:16:09;;;;;;;10.02;7.38;;;;;;;31.64;22.38;93621.94;5025449;28;20059;-60
2023/06/18 11:18:36;;;;;;;8.27;7.32;;;;;;;32.10;21.32;93612.78;5052308;28;20048;-58
2023/06/18 11:21:03;;;;;;;8.73;7.38;;;;;;;32.31;21.29;93611.88;5038036;28;20165;-59
2023/06/18 11:23:32;;;;;;;8.57;7.70;;;;;;;32.33;21.68;93604.28;5052213;28;20037;-59
2023/06/18 11:25:59;;;;;;;8.27;7.33;;;;;;;31.60;22.22;93600.94;5051192;28;20044;-65
2023/06/18 11:28:26;;;;;;;8.68;7.50;;;;;;;31.35;22.63;93607.06;5051886;28;20064;-62